createdAt,value
2023-05-26T00:01:19.774Z,15.85
2023-05-26T00:03:50.093Z,15.93
2023-05-26T00:06:16.936Z,15.95
2023-05-26T00:08:43.827Z,16.17
2023-05-26T00:11:10.549Z,15.99
2023-05-26T00:13:37.461Z,15.87
2023-05-26T00:16:04.441Z,15.67
2023-05-26T00:18:31.120Z,15.62
2023-05-26T00:20:57.715Z,15.49
2023-05-26T00:23:25.369Z,15.76
2023-05-26T00:25:52.275Z,15.50
2023-05-26T00:28:18.996Z,15.67
2023-05-26T00:30:45.860Z,15.87
2023-05-26T00:33:12.657Z,15.80
2023-05-26T00:35:40.119Z,15.84
2023-05-26T00:38:07.353Z,15.90
2023-05-26T00:40:34.077Z,15.66
2023-05-26T00:43:00.773Z,15.33
2023-05-26T00:45:27.495Z,15.62
2023-05-26T00:47:54.194Z,15.63
2023-05-26T00:50:21.699Z,15.82
2023-05-26T00:52:49.249Z,15.55
2023-05-26T00:55:15.986Z,15.72
2023-05-26T00:57:43.018Z,15.78
2023-05-26T01:00:11.028Z,15.91
2023-05-26T01:02:40.825Z,15.72
2023-05-26T01:05:09.479Z,15.51
2023-05-26T01:07:37.506Z,15.66
2023-05-26T01:10:05.287Z,15.44
2023-05-26T01:13:04.782Z,15.71
2023-05-26T01:15:37.651Z,15.44
2023-05-26T01:18:13.673Z,15.43
2023-05-26T01:20:45.108Z,15.42
2023-05-26T01:24:00.666Z,15.12
2023-05-26T01:26:46.208Z,15.39
2023-05-26T01:29:15.773Z,15.01
2023-05-26T01:31:42.607Z,15.27
2023-05-26T01:34:09.487Z,15.27
2023-05-26T01:36:39.484Z,15.31
2023-05-26T01:39:09.335Z,15.21
2023-05-26T01:41:39.148Z,15.30
2023-05-26T01:44:31.580Z,15.31
2023-05-26T01:46:58.555Z,14.98
2023-05-26T01:49:30.374Z,15.13
2023-05-26T01:52:03.371Z,15.14
2023-05-26T01:54:35.742Z,15.06
2023-05-26T01:57:02.753Z,15.31
2023-05-26T01:59:31.139Z,15.15
2023-05-26T02:01:57.754Z,15.25
2023-05-26T02:04:24.593Z,15.19
2023-05-26T02:06:52.763Z,15.32
2023-05-26T02:09:19.585Z,15.06
2023-05-26T02:11:46.514Z,14.84
2023-05-26T02:14:13.131Z,14.98
2023-05-26T02:16:40.814Z,14.96
2023-05-26T02:19:10.410Z,14.81
2023-05-26T02:21:37.064Z,14.65
2023-05-26T02:24:03.861Z,14.96
2023-05-26T02:26:30.404Z,14.73
2023-05-26T02:28:57.965Z,14.76
2023-05-26T02:31:24.997Z,14.92
2023-05-26T02:33:51.693Z,14.66
2023-05-26T02:36:19.053Z,14.83
2023-05-26T02:38:45.938Z,14.88
2023-05-26T02:41:12.615Z,15.08
2023-05-26T02:43:40.073Z,14.98
2023-05-26T02:46:06.738Z,14.72
2023-05-26T02:48:33.675Z,14.81
2023-05-26T02:51:00.699Z,14.56
2023-05-26T02:53:27.544Z,14.68
2023-05-26T02:55:54.318Z,14.75
2023-05-26T02:58:21.250Z,14.85
2023-05-26T03:00:48.101Z,14.64
2023-05-26T03:03:15.033Z,14.73
2023-05-26T03:05:42.279Z,14.62
2023-05-26T03:08:09.117Z,14.41
2023-05-26T03:10:36.662Z,14.68
2023-05-26T03:13:03.600Z,14.43
2023-05-26T03:15:38.657Z,14.19
2023-05-26T03:18:06.679Z,14.63
2023-05-26T03:20:34.656Z,14.52
2023-05-26T03:23:01.384Z,14.42
2023-05-26T03:25:28.085Z,14.49
2023-05-26T03:27:55.424Z,14.43
2023-05-26T03:30:22.190Z,14.64
2023-05-26T03:32:49.376Z,14.49
2023-05-26T03:35:16.121Z,14.37
2023-05-26T03:37:42.782Z,14.62
2023-05-26T03:40:10.364Z,14.70
2023-05-26T03:42:36.963Z,14.58
2023-05-26T03:45:03.875Z,14.26
2023-05-26T03:47:32.104Z,14.19
2023-05-26T03:49:58.846Z,13.86
2023-05-26T03:52:26.666Z,13.93
2023-05-26T03:54:53.498Z,13.89
2023-05-26T03:57:20.438Z,14.10
2023-05-26T03:59:47.388Z,14.29
2023-05-26T04:02:14.258Z,14.49
2023-05-26T04:04:41.030Z,14.61
2023-05-26T04:07:07.884Z,14.62
2023-05-26T04:09:34.538Z,14.71
2023-05-26T04:12:02.095Z,14.85
2023-05-26T04:14:28.746Z,15.01
2023-05-26T04:16:56.183Z,14.78
2023-05-26T04:19:22.922Z,14.84
2023-05-26T04:21:50.189Z,14.70
2023-05-26T04:24:16.842Z,14.68
2023-05-26T04:26:45.312Z,14.31
2023-05-26T04:29:13.066Z,14.47
2023-05-26T04:31:42.276Z,14.94
2023-05-26T04:34:09.827Z,15.82
2023-05-26T04:36:40.237Z,15.84
2023-05-26T04:39:07.586Z,15.98
2023-05-26T04:41:34.923Z,15.91
2023-05-26T04:44:01.828Z,15.92
2023-05-26T04:46:29.814Z,15.79
2023-05-26T04:48:59.489Z,15.81
2023-05-26T04:51:26.356Z,16.21
2023-05-26T04:53:53.035Z,16.04
2023-05-26T04:56:19.724Z,15.85
2023-05-26T04:58:46.787Z,16.21
2023-05-26T05:01:14.222Z,16.24
2023-05-26T05:03:44.536Z,16.34
2023-05-26T05:06:14.549Z,16.32
2023-05-26T05:08:41.187Z,16.59
2023-05-26T05:11:07.870Z,16.48
2023-05-26T05:13:34.760Z,16.67
2023-05-26T05:16:02.042Z,16.39
2023-05-26T05:18:28.906Z,16.56
2023-05-26T05:20:55.545Z,16.81
2023-05-26T05:23:22.395Z,17.33
2023-05-26T05:25:49.177Z,17.92
2023-05-26T05:28:15.941Z,17.53
2023-05-26T05:30:44.772Z,17.89
2023-05-26T05:33:13.242Z,18.06
2023-05-26T05:35:40.565Z,18.27
2023-05-26T05:38:07.346Z,19.01
2023-05-26T05:40:33.997Z,18.36
2023-05-26T05:43:02.351Z,19.16
2023-05-26T05:45:29.044Z,19.09
2023-05-26T05:47:56.766Z,19.20
2023-05-26T05:50:24.320Z,19.42
2023-05-26T05:52:51.005Z,19.20
2023-05-26T05:55:17.722Z,19.14
2023-05-26T05:57:44.373Z,19.28
2023-05-26T06:00:12.217Z,18.98
2023-05-26T06:02:39.727Z,19.08
2023-05-26T06:05:07.134Z,18.94
2023-05-26T06:07:34.172Z,19.30
2023-05-26T06:10:01.022Z,19.42
2023-05-26T06:12:27.882Z,19.15
2023-05-26T06:14:54.721Z,19.48
2023-05-26T06:17:21.655Z,20.08
2023-05-26T06:19:48.340Z,19.98
2023-05-26T06:22:15.015Z,20.12
2023-05-26T06:24:41.672Z,20.21
2023-05-26T06:27:08.916Z,20.41
2023-05-26T06:29:35.611Z,20.67
2023-05-26T06:32:02.858Z,20.73
2023-05-26T06:34:29.504Z,21.01
2023-05-26T06:36:56.785Z,21.62
2023-05-26T06:39:27.621Z,21.79
2023-05-26T06:41:55.538Z,22.12
2023-05-26T06:44:22.221Z,22.45
2023-05-26T06:46:49.143Z,21.25
2023-05-26T06:49:16.115Z,21.97
2023-05-26T06:51:45.539Z,22.46
2023-05-26T06:54:12.361Z,23.16
2023-05-26T06:56:39.208Z,22.86
2023-05-26T06:59:06.085Z,22.95
2023-05-26T07:01:32.851Z,22.95
2023-05-26T07:03:59.926Z,23.49
2023-05-26T07:06:35.590Z,24.28
2023-05-26T07:09:11.639Z,24.29
2023-05-26T07:11:38.363Z,24.53
2023-05-26T07:14:05.111Z,24.53
2023-05-26T07:16:31.924Z,24.71
2023-05-26T07:18:58.931Z,24.54
2023-05-26T07:21:29.036Z,25.37
2023-05-26T07:23:57.622Z,25.43
2023-05-26T07:26:24.654Z,24.67
2023-05-26T07:28:52.231Z,25.49
2023-05-26T07:31:20.089Z,25.32
2023-05-26T07:33:49.096Z,24.66
2023-05-26T07:36:17.275Z,25.37
2023-05-26T07:38:44.153Z,25.03
2023-05-26T07:41:11.052Z,25.46
2023-05-26T07:43:38.174Z,24.75
2023-05-26T07:46:04.848Z,25.70
2023-05-26T07:48:31.877Z,25.68
2023-05-26T07:50:58.592Z,26.29
2023-05-26T07:53:25.284Z,26.18
2023-05-26T07:55:52.130Z,26.08
2023-05-26T07:58:19.026Z,26.19
2023-05-26T08:00:45.891Z,26.40
2023-05-26T08:03:12.791Z,27.23
2023-05-26T08:05:39.679Z,27.61
2023-05-26T08:08:06.428Z,27.70
2023-05-26T08:10:33.139Z,27.17
2023-05-26T08:12:59.972Z,28.00
2023-05-26T08:15:26.973Z,27.90
2023-05-26T08:17:54.262Z,28.48
2023-05-26T08:20:22.198Z,28.48
2023-05-26T08:22:49.162Z,28.16
2023-05-26T08:25:16.179Z,27.74
2023-05-26T08:27:42.942Z,28.65
2023-05-26T08:30:09.783Z,29.15
2023-05-26T08:32:36.448Z,28.75
2023-05-26T08:35:03.566Z,28.70
2023-05-26T08:37:30.532Z,29.34
2023-05-26T08:39:58.717Z,29.99
2023-05-26T08:42:34.746Z,28.92
2023-05-26T08:45:02.792Z,29.57
2023-05-26T08:47:32.212Z,28.79
2023-05-26T08:50:03.955Z,29.31
2023-05-26T08:52:31.209Z,29.55
2023-05-26T08:54:57.878Z,29.80
2023-05-26T08:57:29.752Z,29.82
2023-05-26T08:59:57.006Z,29.96
2023-05-26T09:02:23.676Z,29.08
2023-05-26T09:04:52.029Z,28.88
2023-05-26T09:09:48.932Z,29.25
2023-05-26T09:12:16.002Z,29.96
2023-05-26T09:14:43.433Z,30.23
2023-05-26T09:17:16.444Z,28.73
2023-05-26T09:19:44.175Z,29.33
2023-05-26T09:22:11.727Z,29.65
2023-05-26T09:24:50.213Z,30.50
2023-05-26T09:27:19.390Z,30.25
2023-05-26T09:29:51.776Z,29.53
2023-05-26T09:32:18.833Z,30.69
2023-05-26T09:34:45.805Z,30.97
2023-05-26T09:37:13.061Z,30.59
2023-05-26T09:39:40.023Z,30.95
2023-05-26T09:42:10.295Z,31.46
2023-05-26T09:44:37.513Z,31.04
2023-05-26T09:47:07.555Z,30.93
2023-05-26T09:49:34.276Z,31.01
2023-05-26T09:52:12.627Z,30.71
2023-05-26T09:54:41.576Z,30.94
2023-05-26T09:57:15.729Z,31.92
2023-05-26T09:59:46.159Z,32.01
2023-05-26T10:02:21.896Z,29.39
2023-05-26T10:04:50.927Z,28.80
2023-05-26T10:07:20.307Z,29.26
2023-05-26T10:09:54.696Z,31.09
2023-05-26T10:12:27.753Z,30.77
2023-05-26T10:14:56.568Z,30.77
2023-05-26T10:17:26.554Z,30.44
2023-05-26T10:19:58.887Z,31.13
2023-05-26T10:22:53.526Z,30.83
2023-05-26T10:26:01.856Z,31.09
2023-05-26T10:29:07.497Z,31.67
2023-05-26T10:31:36.481Z,31.53
2023-05-26T10:34:13.624Z,31.43
2023-05-26T10:36:40.682Z,32.18
2023-05-26T10:39:14.833Z,31.72
2023-05-26T10:41:52.146Z,31.21
2023-05-26T10:44:41.835Z,31.19
2023-05-26T10:47:14.808Z,30.49
2023-05-26T10:49:41.791Z,30.39
2023-05-26T10:52:12.233Z,31.25
2023-05-26T10:54:39.038Z,30.40
2023-05-26T10:57:06.419Z,29.70
2023-05-26T10:59:38.085Z,29.71
2023-05-26T11:02:06.921Z,30.60
2023-05-26T11:04:55.404Z,30.11
2023-05-26T11:07:27.576Z,29.49
2023-05-26T11:10:06.724Z,29.45
2023-05-26T11:12:47.601Z,27.84
2023-05-26T11:15:30.438Z,28.71
2023-05-26T11:18:10.131Z,29.18
2023-05-26T11:20:37.216Z,29.30
2023-05-26T11:23:04.841Z,28.77
2023-05-26T11:25:31.853Z,27.79
2023-05-26T11:28:00.279Z,28.33
2023-05-26T11:30:35.709Z,28.38
2023-05-26T11:33:12.073Z,28.79
2023-05-26T11:35:38.902Z,29.05
2023-05-26T11:38:05.643Z,27.23
2023-05-26T11:40:33.676Z,27.39
2023-05-26T11:43:00.567Z,28.49
2023-05-26T11:45:27.288Z,29.15
2023-05-26T11:47:54.106Z,29.29
2023-05-26T11:50:20.939Z,28.55
2023-05-26T11:52:49.857Z,28.60
2023-05-26T11:55:19.060Z,29.24
2023-05-26T11:57:46.557Z,28.43
2023-05-26T12:00:15.634Z,29.47
2023-05-26T12:02:42.894Z,29.00
2023-05-26T12:05:29.594Z,29.27
2023-05-26T12:08:06.904Z,29.14
2023-05-26T12:10:34.199Z,29.54
2023-05-26T12:13:01.629Z,28.46
2023-05-26T12:15:29.503Z,28.50
2023-05-26T12:17:58.262Z,28.99
2023-05-26T12:20:42.807Z,28.76
2023-05-26T12:23:12.907Z,29.30
2023-05-26T12:25:40.322Z,29.37
2023-05-26T12:28:07.406Z,29.18
2023-05-26T12:30:48.663Z,29.79
2023-05-26T12:33:17.038Z,29.80
2023-05-26T12:35:43.746Z,28.92
2023-05-26T12:38:14.432Z,28.98
2023-05-26T12:40:41.534Z,30.23
2023-05-26T12:43:08.616Z,30.62
2023-05-26T12:45:36.125Z,30.47
2023-05-26T12:48:03.113Z,30.83
2023-05-26T12:50:29.943Z,30.41
2023-05-26T12:52:56.669Z,30.87
2023-05-26T12:55:24.772Z,31.30
2023-05-26T12:57:51.678Z,30.66
2023-05-26T13:00:18.911Z,31.73
2023-05-26T13:02:47.549Z,32.60
2023-05-26T13:05:17.549Z,33.62
2023-05-26T13:07:44.689Z,32.54
2023-05-26T13:10:12.282Z,32.57
2023-05-26T13:12:42.405Z,34.28
2023-05-26T13:15:10.332Z,34.02
2023-05-26T13:17:38.007Z,32.90
2023-05-26T13:20:05.391Z,33.34
2023-05-26T13:22:32.416Z,33.21
2023-05-26T13:25:00.067Z,32.69
2023-05-26T13:27:26.607Z,32.37
2023-05-26T13:29:53.256Z,29.80
2023-05-26T13:32:19.912Z,29.35
2023-05-26T13:34:46.590Z,27.71
2023-05-26T13:37:13.395Z,27.49
2023-05-26T13:39:40.876Z,27.05
2023-05-26T13:42:07.667Z,27.19
2023-05-26T13:44:34.730Z,27.54
2023-05-26T13:47:01.416Z,27.67
2023-05-26T13:49:28.069Z,27.40
2023-05-26T13:51:54.706Z,27.63
2023-05-26T13:54:21.320Z,27.63
2023-05-26T13:56:48.030Z,27.20
2023-05-26T13:59:14.811Z,27.09
2023-05-26T14:01:41.928Z,26.38
2023-05-26T14:04:08.907Z,26.58
2023-05-26T14:06:37.386Z,26.83
2023-05-26T14:09:07.534Z,26.92
2023-05-26T14:11:34.576Z,26.64
2023-05-26T14:14:01.488Z,26.88
2023-05-26T14:16:28.263Z,26.74
2023-05-26T14:19:05.429Z,26.75
2023-05-26T14:22:01.482Z,26.83
2023-05-26T14:24:21.852Z,26.32
2023-05-26T14:26:48.777Z,26.30
2023-05-26T14:29:16.356Z,25.58
2023-05-26T14:31:43.285Z,26.24
2023-05-26T14:34:10.462Z,26.62
2023-05-26T14:36:40.298Z,25.69
2023-05-26T14:39:10.082Z,26.31
2023-05-26T14:41:36.801Z,26.22
2023-05-26T14:44:03.703Z,26.25
2023-05-26T14:46:30.392Z,26.14
2023-05-26T14:48:57.134Z,25.70
2023-05-26T14:51:27.129Z,26.37
2023-05-26T14:53:53.980Z,26.15
2023-05-26T14:56:21.602Z,26.28
2023-05-26T14:58:48.391Z,26.52
2023-05-26T15:01:15.244Z,26.34
2023-05-26T15:06:16.483Z,25.89
2023-05-26T15:08:45.185Z,26.05
2023-05-26T15:11:13.910Z,26.20
2023-05-26T15:13:41.634Z,25.31
2023-05-26T15:16:08.896Z,25.67
2023-05-26T15:18:35.823Z,25.61
2023-05-26T15:21:03.858Z,25.18
2023-05-26T15:23:32.407Z,25.05
2023-05-26T15:26:00.460Z,25.45
2023-05-26T15:28:28.159Z,25.57
2023-05-26T15:30:55.826Z,25.71
2023-05-26T15:33:24.253Z,25.59
2023-05-26T15:35:52.458Z,25.35
2023-05-26T15:38:19.562Z,25.79
2023-05-26T15:40:46.976Z,25.44
2023-05-26T15:43:13.954Z,25.52
2023-05-26T15:45:41.148Z,25.57
2023-05-26T15:48:08.175Z,25.46
2023-05-26T15:50:35.293Z,25.24
2023-05-26T15:53:02.549Z,24.97
2023-05-26T15:55:29.286Z,25.11
2023-05-26T15:58:01.093Z,25.26
2023-05-26T16:00:29.481Z,24.81
2023-05-26T16:02:56.299Z,24.92
2023-05-26T16:05:23.195Z,25.33
2023-05-26T16:07:49.852Z,25.49
2023-05-26T16:10:17.379Z,25.19
2023-05-26T16:12:44.371Z,24.96
2023-05-26T16:15:11.723Z,24.64
2023-05-26T16:17:38.758Z,25.19
2023-05-26T16:20:06.393Z,25.10
2023-05-26T16:22:33.140Z,25.13
2023-05-26T16:25:00.120Z,24.92
2023-05-26T16:27:27.014Z,24.90
2023-05-26T16:29:53.835Z,24.57
2023-05-26T16:32:20.836Z,24.44
2023-05-26T16:34:47.568Z,24.61
2023-05-26T16:37:14.788Z,24.25
2023-05-26T16:39:43.286Z,24.44
2023-05-26T16:42:09.973Z,24.59
2023-05-26T16:44:36.796Z,24.86
2023-05-26T16:47:04.211Z,24.26
2023-05-26T16:49:31.295Z,24.12
2023-05-26T16:51:57.944Z,24.34
2023-05-26T16:54:24.774Z,24.47
2023-05-26T16:56:51.734Z,24.31
2023-05-26T16:59:18.357Z,24.41
2023-05-26T17:01:45.131Z,24.36
2023-05-26T17:04:12.422Z,24.22
2023-05-26T17:06:39.939Z,24.07
2023-05-26T17:09:08.509Z,23.87
2023-05-26T17:11:35.342Z,23.59
2023-05-26T17:14:01.999Z,23.48
2023-05-26T17:16:28.605Z,23.77
2023-05-26T17:18:55.341Z,23.66
2023-05-26T17:21:22.457Z,23.88
2023-05-26T17:23:50.864Z,23.76
2023-05-26T17:26:18.514Z,23.78
2023-05-26T17:28:45.435Z,23.39
2023-05-26T17:31:15.301Z,23.35
2023-05-26T17:33:42.600Z,23.48
2023-05-26T17:36:09.812Z,23.60
2023-05-26T17:38:38.514Z,23.54
2023-05-26T17:41:08.634Z,23.31
2023-05-26T17:43:35.642Z,23.50
2023-05-26T17:46:02.283Z,23.25
2023-05-26T17:48:30.441Z,23.01
2023-05-26T17:50:58.072Z,23.26
2023-05-26T17:53:24.877Z,23.27
2023-05-26T17:55:52.179Z,23.18
2023-05-26T17:58:18.955Z,22.96
2023-05-26T18:00:46.950Z,22.72
2023-05-26T18:03:14.310Z,22.86
2023-05-26T18:05:41.471Z,23.13
2023-05-26T18:08:08.860Z,22.82
2023-05-26T18:10:36.073Z,23.08
2023-05-26T18:13:02.840Z,22.67
2023-05-26T18:15:31.236Z,22.82
2023-05-26T18:17:59.429Z,22.46
2023-05-26T18:20:27.024Z,22.53
2023-05-26T18:22:56.413Z,22.52
2023-05-26T18:25:23.923Z,22.23
2023-05-26T18:27:52.088Z,22.55
2023-05-26T18:30:19.176Z,22.38
2023-05-26T18:32:46.927Z,22.21
2023-05-26T18:35:14.347Z,22.08
2023-05-26T18:37:41.342Z,22.13
2023-05-26T18:40:09.200Z,22.34
2023-05-26T18:42:40.226Z,21.82
2023-05-26T18:45:08.257Z,21.77
2023-05-26T18:47:36.133Z,21.90
2023-05-26T18:50:08.430Z,21.63
2023-05-26T18:52:37.374Z,21.71
2023-05-26T18:55:05.975Z,21.54
2023-05-26T18:57:33.179Z,21.59
2023-05-26T19:00:01.025Z,21.45
2023-05-26T19:02:27.892Z,21.66
2023-05-26T19:04:55.300Z,21.46
2023-05-26T19:07:24.767Z,21.29
2023-05-26T19:09:53.999Z,21.16
2023-05-26T19:12:20.864Z,21.21
2023-05-26T19:14:47.570Z,21.16
2023-05-26T19:17:15.323Z,21.04
2023-05-26T19:19:42.272Z,20.92
2023-05-26T19:22:11.249Z,20.79
2023-05-26T19:24:38.067Z,20.86
2023-05-26T19:27:07.557Z,20.81
2023-05-26T19:29:34.594Z,20.84
2023-05-26T19:32:02.109Z,20.84
2023-05-26T19:34:29.101Z,20.63
2023-05-26T19:36:55.728Z,20.59
2023-05-26T19:39:22.416Z,20.53
2023-05-26T19:41:49.464Z,20.22
2023-05-26T19:44:16.890Z,20.44
2023-05-26T19:46:45.085Z,20.21
2023-05-26T19:49:11.865Z,20.27
2023-05-26T19:51:38.687Z,20.38
2023-05-26T19:54:05.315Z,20.37
2023-05-26T19:56:31.945Z,20.45
2023-05-26T19:58:58.576Z,19.90
2023-05-26T20:01:25.334Z,20.02
2023-05-26T20:03:53.827Z,19.89
2023-05-26T20:06:20.625Z,20.04
2023-05-26T20:08:47.645Z,19.94
2023-05-26T20:11:14.365Z,19.91
2023-05-26T20:13:41.057Z,19.80
2023-05-26T20:16:08.046Z,19.79
2023-05-26T20:18:34.638Z,19.77
2023-05-26T20:21:01.583Z,19.54
2023-05-26T20:23:28.320Z,19.50
2023-05-26T20:25:55.197Z,19.07
2023-05-26T20:28:23.003Z,19.67
2023-05-26T20:30:51.611Z,19.35
2023-05-26T20:33:18.287Z,19.51
2023-05-26T20:35:46.276Z,19.47
2023-05-26T20:38:13.044Z,19.51
2023-05-26T20:40:40.212Z,19.31
2023-05-26T20:43:06.993Z,19.35
2023-05-26T20:45:33.743Z,19.44
2023-05-26T20:48:00.856Z,19.35
2023-05-26T20:50:28.012Z,18.92
2023-05-26T20:52:56.372Z,18.86
2023-05-26T20:55:23.057Z,18.99
2023-05-26T20:57:50.023Z,18.89
2023-05-26T21:00:16.911Z,18.52
2023-05-26T21:02:43.733Z,18.78
2023-05-26T21:05:10.731Z,18.75
2023-05-26T21:07:37.576Z,18.58
2023-05-26T21:10:04.554Z,18.28
2023-05-26T21:12:31.739Z,18.34
2023-05-26T21:15:00.359Z,18.32
2023-05-26T21:17:27.245Z,18.29
2023-05-26T21:19:54.049Z,18.29
2023-05-26T21:22:21.303Z,18.31
2023-05-26T21:24:47.882Z,18.44
2023-05-26T21:27:16.308Z,18.40
2023-05-26T21:29:42.931Z,18.34
2023-05-26T21:32:09.612Z,18.32
2023-05-26T21:34:36.487Z,18.08
2023-05-26T21:37:03.412Z,18.26
2023-05-26T21:39:30.168Z,18.20
2023-05-26T21:41:57.173Z,18.46
2023-05-26T21:44:23.974Z,18.44
2023-05-26T21:46:50.831Z,18.42
2023-05-26T21:49:17.762Z,18.15
2023-05-26T21:51:44.816Z,17.74
2023-05-26T21:54:11.639Z,18.20
2023-05-26T21:56:38.326Z,17.71
2023-05-26T21:59:05.048Z,18.12
2023-05-26T22:01:32.009Z,18.00
2023-05-26T22:03:59.002Z,18.21
2023-05-26T22:06:25.900Z,18.26
2023-05-26T22:08:52.994Z,17.62
2023-05-26T22:11:20.840Z,17.73
2023-05-26T22:13:47.932Z,17.84
2023-05-26T22:16:14.866Z,17.89
2023-05-26T22:18:41.682Z,18.10
2023-05-26T22:21:12.739Z,17.71
2023-05-26T22:23:40.845Z,17.31
2023-05-26T22:26:07.791Z,17.71
2023-05-26T22:28:36.986Z,17.64
2023-05-26T22:31:04.507Z,17.60
2023-05-26T22:33:31.271Z,17.52
2023-05-26T22:35:59.143Z,17.76
2023-05-26T22:38:27.037Z,17.47
2023-05-26T22:40:53.978Z,17.62
2023-05-26T22:43:21.005Z,17.04
2023-05-26T22:45:48.167Z,17.00
2023-05-26T22:48:14.819Z,17.33
2023-05-26T22:50:41.826Z,17.20
2023-05-26T22:53:08.433Z,17.03
2023-05-26T22:55:45.199Z,16.99
2023-05-26T22:58:14.093Z,16.98
2023-05-26T23:00:41.408Z,16.86
2023-05-26T23:03:08.353Z,16.87
2023-05-26T23:05:35.485Z,17.19
2023-05-26T23:08:02.431Z,16.82
2023-05-26T23:10:29.102Z,16.75
2023-05-26T23:12:56.306Z,17.18
2023-05-26T23:15:23.105Z,16.98
2023-05-26T23:17:50.019Z,17.07
2023-05-26T23:20:16.920Z,16.70
2023-05-26T23:22:44.033Z,16.74
2023-05-26T23:25:11.107Z,16.74
2023-05-26T23:27:37.908Z,16.68
2023-05-26T23:30:08.356Z,16.75
2023-05-26T23:32:36.196Z,16.55
2023-05-26T23:35:03.790Z,16.22
2023-05-26T23:37:31.270Z,16.61
2023-05-26T23:40:01.264Z,16.41
2023-05-26T23:42:29.716Z,16.58
2023-05-26T23:44:56.486Z,16.11
2023-05-26T23:47:23.147Z,16.39
2023-05-26T23:49:51.105Z,16.42
2023-05-26T23:52:18.016Z,16.32
2023-05-26T23:54:44.657Z,16.29
2023-05-26T23:57:11.348Z,16.12
2023-05-26T23:59:38.011Z,16.34
